Time;durP1;ratioP1;P1;durP2;ratioP2;P2;SDS_P1;SDS_P2;PMS_P1;PMS_P2;Temp;Humidity;BMP_temperature;BMP_pressure;BME280_temperature;BME280_humidity;BME280_pressure;Samples;Min_cycle;Max_cycle;Signal;HPM_P1;HPM_P2
2023/02/08 00:01:15;;;;;;;11.95;5.95;;;-0.20;93.50;;;;;;5037755;28;20570;-72
2023/02/08 00:03:41;;;;;;;14.07;7.50;;;-0.40;93.30;;;;;;5031648;28;20029;-72
2023/02/08 00:06:07;;;;;;;11.35;6.28;;;-0.30;93.00;;;;;;5032388;28;20111;-72
2023/02/08 00:08:37;;;;;;;10.23;5.28;;;-0.30;93.10;;;;;;5046801;28;20016;-72
2023/02/08 00:11:04;;;;;;;13.50;6.05;;;-0.30;92.90;;;;;;5045291;28;20091;-72
2023/02/08 00:13:30;;;;;;;11.90;6.18;;;-0.10;92.60;;;;;;5032186;28;20064;-72
2023/02/08 00:15:56;;;;;;;12.18;6.95;;;-0.20;92.90;;;;;;5035246;28;20079;-73
2023/02/08 00:18:22;;;;;;;11.65;6.07;;;-0.20;92.90;;;;;;5043282;28;20028;-72
2023/02/08 00:20:48;;;;;;;11.60;5.88;;;-0.30;93.10;;;;;;5042220;28;20076;-72
2023/02/08 00:23:14;;;;;;;12.77;5.88;;;-0.30;93.00;;;;;;5049277;28;20040;-73
2023/02/08 00:25:40;;;;;;;11.27;5.68;;;-0.20;93.00;;;;;;5038394;28;20030;-73
2023/02/08 00:28:10;;;;;;;11.00;5.80;;;-0.30;92.70;;;;;;5039177;28;20083;-72
2023/02/08 00:30:36;;;;;;;12.13;6.57;;;-0.40;93.10;;;;;;5044356;28;20402;-73
2023/02/08 00:33:02;;;;;;;11.60;6.03;;;-0.30;92.90;;;;;;5033251;28;20029;-72
2023/02/08 00:35:28;;;;;;;14.40;7.90;;;-0.30;92.80;;;;;;5043026;28;20105;-72
2023/02/08 00:37:54;;;;;;;12.15;6.50;;;-0.30;94.00;;;;;;5034529;28;20578;-72
2023/02/08 00:40:19;;;;;;;10.10;5.85;;;-0.30;92.30;;;;;;5038597;28;20131;-73
2023/02/08 00:42:45;;;;;;;10.65;5.38;;;-0.30;92.60;;;;;;5032403;28;20044;-72
2023/02/08 00:45:11;;;;;;;11.13;5.43;;;-0.50;92.20;;;;;;5047025;28;20110;-73
2023/02/08 00:47:36;;;;;;;15.05;6.43;;;-0.50;92.10;;;;;;5038295;28;20502;-72
2023/02/08 00:50:03;;;;;;;17.35;9.55;;;-0.50;93.10;;;;;;5047929;28;20546;-72
2023/02/08 00:52:29;;;;;;;13.77;8.07;;;-0.20;95.20;;;;;;5040194;28;20033;-73
2023/02/08 00:54:54;;;;;;;10.93;6.85;;;-0.20;93.50;;;;;;5042694;28;20043;-73
2023/02/08 00:57:20;;;;;;;13.48;6.70;;;-0.30;93.00;;;;;;5039760;28;20053;-72
2023/02/08 00:59:45;;;;;;;11.73;5.00;;;-0.30;92.70;;;;;;5036913;28;20037;-72
2023/02/08 01:02:11;;;;;;;9.45;5.90;;;-0.30;92.60;;;;;;5042543;28;20037;-72
2023/02/08 01:04:37;;;;;;;9.98;5.57;;;-0.40;92.80;;;;;;5035434;28;20045;-72
2023/02/08 01:07:04;;;;;;;10.80;5.47;;;-0.60;93.00;;;;;;5030940;28;20052;-72
2023/02/08 01:09:29;;;;;;;11.52;5.05;;;-0.40;92.30;;;;;;5034262;28;20052;-72
2023/02/08 01:11:55;;;;;;;8.88;4.50;;;-0.50;91.90;;;;;;5033025;28;20029;-72
2023/02/08 01:14:21;;;;;;;11.98;5.75;;;-0.50;91.90;;;;;;5041954;28;20033;-72
2023/02/08 01:16:46;;;;;;;7.82;4.75;;;-0.50;91.90;;;;;;5037080;28;20581;-72
2023/02/08 01:19:12;;;;;;;11.23;6.13;;;-0.50;92.00;;;;;;5043797;28;20032;-72
2023/02/08 01:21:40;;;;;;;9.02;5.13;;;-0.40;91.70;;;;;;5036194;28;20108;-72
2023/02/08 01:24:06;;;;;;;10.52;4.97;;;-0.40;91.80;;;;;;5035389;28;20033;-72
2023/02/08 01:26:32;;;;;;;10.68;4.97;;;-0.40;91.30;;;;;;5036244;28;20037;-72
2023/02/08 01:28:58;;;;;;;11.10;4.50;;;-0.40;91.20;;;;;;5032158;28;20025;-72
2023/02/08 01:31:36;;;;;;;9.35;4.50;;;-0.40;91.30;;;;;;5034807;28;20322;-72
2023/02/08 01:34:02;;;;;;;10.88;5.72;;;-0.30;90.90;;;;;;5043101;28;20033;-72
2023/02/08 01:36:29;;;;;;;9.38;5.18;;;-0.30;91.10;;;;;;5032363;28;20034;-72
2023/02/08 01:38:54;;;;;;;10.38;5.32;;;-0.40;91.20;;;;;;5038966;28;20086;-72
2023/02/08 01:41:23;;;;;;;9.40;5.20;;;-0.50;91.30;;;;;;5036973;28;20045;-72
2023/02/08 01:44:10;;;;;;;13.85;5.55;;;-0.40;91.30;;;;;;5036901;28;20025;-72
2023/02/08 01:46:41;;;;;;;10.27;6.03;;;-0.30;91.60;;;;;;5030796;28;20108;-72
2023/02/08 01:49:16;;;;;;;12.13;6.25;;;-0.20;91.60;;;;;;5029920;28;20445;-72
2023/02/08 01:51:47;;;;;;;8.98;4.95;;;-0.10;91.60;;;;;;5043474;28;20168;-73
2023/02/08 01:54:16;;;;;;;9.32;4.72;;;-0.30;91.20;;;;;;5040921;28;20032;-73
2023/02/08 01:56:47;;;;;;;10.68;5.28;;;-0.30;91.00;;;;;;5044893;28;20050;-72
2023/02/08 01:59:21;;;;;;;12.48;5.88;;;-0.40;91.20;;;;;;5042312;28;20061;-72
2023/02/08 02:01:50;;;;;;;11.43;5.80;;;-0.30;91.40;;;;;;5033944;28;20039;-72
2023/02/08 02:04:15;;;;;;;12.05;6.60;;;-0.40;91.50;;;;;;5046690;28;20078;-72
2023/02/08 02:06:45;;;;;;;9.77;5.18;;;-0.40;91.60;;;;;;5040123;28;20029;-72
2023/02/08 02:09:21;;;;;;;13.23;6.18;;;-0.30;91.30;;;;;;5037158;28;20041;-72
2023/02/08 02:11:49;;;;;;;12.73;6.00;;;-0.60;91.40;;;;;;5034805;28;20037;-73
2023/02/08 02:14:15;;;;;;;11.30;4.88;;;-0.50;91.60;;;;;;5041746;28;20033;-73
2023/02/08 02:16:41;;;;;;;11.00;4.72;;;-0.50;91.20;;;;;;5038975;28;20040;-72
2023/02/08 02:19:14;;;;;;;11.10;5.28;;;-0.50;91.20;;;;;;5038867;28;20084;-72
2023/02/08 02:21:49;;;;;;;7.40;3.70;;;-0.70;91.60;;;;;;5034148;28;20040;-72
2023/02/08 02:24:24;;;;;;;8.35;4.68;;;-0.60;91.10;;;;;;5036410;28;20295;-72
2023/02/08 02:26:52;;;;;;;;;;;-0.60;91.00;;;;;;5035441;28;20036;-73
2023/02/08 02:29:48;;;;;;;12.00;5.47;;;-0.70;91.50;;;;;;5036787;28;20446;-72
2023/02/08 02:32:35;;;;;;;11.48;5.50;;;-0.60;91.30;;;;;;5036612;28;20563;-72
2023/02/08 02:35:29;;;;;;;10.75;4.55;;;-0.80;91.60;;;;;;5030420;28;20072;-72
2023/02/08 02:38:23;;;;;;;11.07;5.43;;;-0.90;91.90;;;;;;5029447;28;20083;-72
2023/02/08 02:41:10;;;;;;;13.63;6.70;;;-0.80;92.20;;;;;;5029097;28;20037;-72
2023/02/08 02:43:45;;;;;;;11.30;5.07;;;-0.90;92.40;;;;;;5031966;28;20040;-72
2023/02/08 02:46:39;;;;;;;8.75;4.57;;;-1.00;92.10;;;;;;5030212;28;20508;-72
2023/02/08 02:49:23;;;;;;;13.48;5.70;;;-1.10;92.60;;;;;;5037590;28;20037;-72
2023/02/08 02:52:07;;;;;;;10.65;5.35;;;-1.20;92.60;;;;;;5034911;28;20053;-72
2023/02/08 02:54:36;;;;;;;9.45;4.68;;;-1.00;92.50;;;;;;5038515;28;20104;-72
2023/02/08 02:57:06;;;;;;;10.65;5.63;;;-1.10;92.20;;;;;;5049156;28;20127;-72
2023/02/08 02:59:34;;;;;;;9.57;4.60;;;-1.10;92.10;;;;;;5033538;28;20112;-73
2023/02/08 03:02:02;;;;;;;11.50;5.03;;;-1.30;92.70;;;;;;5031930;28;20042;-71
2023/02/08 03:04:34;;;;;;;11.82;5.63;;;-1.30;92.90;;;;;;5028170;28;20025;-71
2023/02/08 03:07:21;;;;;;;10.05;5.13;;;-1.30;92.80;;;;;;5038666;28;20021;-71
2023/02/08 03:10:12;;;;;;;11.65;5.80;;;-1.20;92.70;;;;;;5035750;28;20104;-71
2023/02/08 03:13:01;;;;;;;9.13;5.55;;;-1.20;93.20;;;;;;5033382;28;20090;-71
2023/02/08 03:15:26;;;;;;;12.30;6.03;;;-1.00;93.20;;;;;;5031702;28;20037;-71
2023/02/08 03:18:03;;;;;;;11.00;5.55;;;-1.20;93.30;;;;;;5030197;28;20043;-71
2023/02/08 03:20:55;;;;;;;16.17;5.72;;;-1.40;93.40;;;;;;5030875;28;20384;-71
2023/02/08 03:23:27;;;;;;;10.63;5.88;;;-1.50;94.10;;;;;;5037988;28;20035;-71
2023/02/08 03:26:14;;;;;;;13.45;6.60;;;-1.40;93.60;;;;;;5028663;28;20021;-71
2023/02/08 03:29:08;;;;;;;10.02;4.50;;;-1.40;93.80;;;;;;5040045;28;20025;-71
2023/02/08 03:31:56;;;;;;;11.77;5.97;;;-1.40;92.80;;;;;;5040820;28;20036;-71
2023/02/08 03:34:34;;;;;;;11.75;6.35;;;-1.30;93.00;;;;;;5035270;28;20448;-71
2023/02/08 03:37:08;;;;;;;12.70;5.53;;;-1.30;93.10;;;;;;5032848;28;20025;-71
2023/02/08 03:39:37;;;;;;;13.40;6.03;;;-1.20;92.80;;;;;;5028154;28;20029;-71
2023/02/08 03:42:10;;;;;;;10.65;4.97;;;-1.00;92.50;;;;;;5028049;28;20029;-71
2023/02/08 03:44:39;;;;;;;11.57;5.53;;;-1.20;92.70;;;;;;5033726;28;20039;-71
2023/02/08 03:47:16;;;;;;;11.75;5.68;;;-1.20;92.40;;;;;;5038130;28;20025;-71
2023/02/08 03:49:44;;;;;;;11.60;5.82;;;-1.20;92.70;;;;;;5028889;28;20119;-71
2023/02/08 03:52:10;;;;;;;10.93;5.53;;;-1.20;92.40;;;;;;5030975;28;20026;-71
2023/02/08 03:55:12;;;;;;;9.77;5.32;;;-1.20;92.10;;;;;;5036284;28;20112;-71
2023/02/08 03:57:52;;;;;;;12.18;6.05;;;-1.30;92.50;;;;;;5035876;28;20548;-71
2023/02/08 04:00:20;;;;;;;10.52;5.78;;;-1.30;92.80;;;;;;5028188;28;20080;-72
2023/02/08 04:03:07;;;;;;;10.43;5.85;;;-1.40;93.20;;;;;;5026848;28;20403;-72
2023/02/08 04:05:33;;;;;;;11.38;5.65;;;-1.40;93.60;;;;;;5030890;28;20479;-72
2023/02/08 04:07:59;;;;;;;12.45;5.75;;;-1.30;93.00;;;;;;5035806;28;20037;-72
2023/02/08 04:10:24;;;;;;;11.15;5.45;;;-1.00;92.30;;;;;;5025487;28;20033;-72
2023/02/08 04:12:50;;;;;;;14.27;5.93;;;-0.90;92.00;;;;;;5031523;28;20028;-72
2023/02/08 04:15:16;;;;;;;14.10;6.00;;;-1.10;92.60;;;;;;5031544;28;20083;-72
2023/02/08 04:17:42;;;;;;;11.30;5.65;;;-1.20;92.80;;;;;;5034224;28;20033;-72
2023/02/08 04:20:08;;;;;;;10.35;5.78;;;-1.20;93.00;;;;;;5033805;28;20642;-72
2023/02/08 04:22:34;;;;;;;10.95;6.32;;;-1.20;92.80;;;;;;5027298;28;20053;-72
2023/02/08 04:25:00;;;;;;;11.75;6.20;;;-1.20;92.90;;;;;;5029615;28;20125;-72
2023/02/08 04:27:25;;;;;;;11.70;5.75;;;-1.40;93.30;;;;;;5026435;28;20097;-72
2023/02/08 04:29:51;;;;;;;14.10;5.85;;;-1.50;93.60;;;;;;5035158;28;20036;-72
2023/02/08 04:32:16;;;;;;;14.15;6.78;;;-1.30;93.20;;;;;;5027122;28;20083;-72
2023/02/08 04:34:42;;;;;;;11.90;6.90;;;-1.50;93.40;;;;;;5032083;28;20108;-72
2023/02/08 04:37:08;;;;;;;15.13;7.35;;;-1.20;93.50;;;;;;5028443;28;20028;-72
2023/02/08 04:39:34;;;;;;;11.60;5.53;;;-1.20;93.60;;;;;;5028279;28;20033;-73
2023/02/08 04:41:59;;;;;;;15.45;7.65;;;-1.40;93.60;;;;;;5028777;28;20036;-72
2023/02/08 04:44:26;;;;;;;13.32;5.97;;;-1.50;93.80;;;;;;5045263;28;20097;-72
2023/02/08 04:46:51;;;;;;;9.98;5.82;;;-1.40;93.50;;;;;;5035246;28;20049;-72
2023/02/08 04:49:17;;;;;;;12.57;6.78;;;-1.40;93.60;;;;;;5032350;28;20533;-72
2023/02/08 04:51:43;;;;;;;13.13;6.47;;;-1.40;93.40;;;;;;5029624;28;20249;-73
2023/02/08 04:54:09;;;;;;;12.15;5.85;;;-1.50;93.50;;;;;;5028494;28;20869;-72
2023/02/08 04:56:35;;;;;;;13.13;7.13;;;-1.40;94.00;;;;;;5035540;28;20513;-72
2023/02/08 04:59:01;;;;;;;13.82;7.22;;;-1.50;93.80;;;;;;5029209;28;20022;-73
2023/02/08 05:01:27;;;;;;;11.05;5.75;;;-1.60;94.50;;;;;;5026452;28;20048;-72
2023/02/08 05:03:52;;;;;;;14.05;6.85;;;-1.60;94.20;;;;;;5033632;28;20059;-72
2023/02/08 05:06:18;;;;;;;13.48;7.03;;;-1.70;94.40;;;;;;5031283;28;20031;-73
2023/02/08 05:08:44;;;;;;;14.95;6.80;;;-1.60;94.10;;;;;;5037030;28;20487;-72
2023/02/08 05:11:09;;;;;;;13.13;7.38;;;-1.70;94.50;;;;;;5032148;28;20463;-73
2023/02/08 05:13:35;;;;;;;15.05;7.68;;;-1.60;94.40;;;;;;5029415;28;20049;-72
2023/02/08 05:16:00;;;;;;;11.93;6.60;;;-1.60;94.50;;;;;;5032869;28;20036;-72
2023/02/08 05:18:26;;;;;;;11.43;5.77;;;-1.60;94.70;;;;;;5028061;28;20103;-72
2023/02/08 05:21:00;;;;;;;14.07;7.43;;;-1.70;95.00;;;;;;5027966;28;20041;-73
2023/02/08 05:23:26;;;;;;;15.02;8.20;;;-1.60;94.80;;;;;;5029617;28;20104;-72
2023/02/08 05:25:52;;;;;;;11.05;6.68;;;-1.70;95.00;;;;;;5031815;28;20025;-72
2023/02/08 05:28:18;;;;;;;13.40;7.03;;;-1.70;94.90;;;;;;5027664;28;20021;-72
2023/02/08 05:30:45;;;;;;;14.15;7.10;;;-1.50;94.60;;;;;;5031465;28;20203;-72
2023/02/08 05:33:10;;;;;;;13.13;6.35;;;-1.70;94.90;;;;;;5029872;28;20040;-73
2023/02/08 05:35:36;;;;;;;14.48;7.18;;;-1.60;94.80;;;;;;5023552;28;20029;-72
2023/02/08 05:38:01;;;;;;;15.52;7.75;;;-1.70;95.40;;;;;;5031052;28;20064;-73
2023/02/08 05:40:27;;;;;;;14.35;7.68;;;-1.70;96.20;;;;;;5024766;28;20038;-72
2023/02/08 05:42:53;;;;;;;14.98;8.05;;;-1.60;94.80;;;;;;5038845;28;20033;-73
2023/02/08 05:45:18;;;;;;;19.13;6.72;;;-1.60;94.50;;;;;;5029530;28;20060;-73
2023/02/08 05:47:46;;;;;;;16.42;7.95;;;-1.60;94.40;;;;;;5030443;28;20091;-73
2023/02/08 05:50:12;;;;;;;16.77;7.23;;;-1.60;94.60;;;;;;5033206;28;20037;-72
2023/02/08 05:52:38;;;;;;;12.60;6.72;;;-1.60;94.60;;;;;;5034261;28;20990;-72
2023/02/08 05:55:05;;;;;;;17.57;8.90;;;-1.80;94.80;;;;;;5034513;28;20040;-73
2023/02/08 05:57:30;;;;;;;14.20;8.10;;;-1.80;95.00;;;;;;5028185;28;20059;-72
2023/02/08 05:59:56;;;;;;;11.20;7.15;;;-1.80;95.10;;;;;;5025881;28;20048;-72
2023/02/08 06:02:22;;;;;;;14.77;7.97;;;-1.90;95.60;;;;;;5025549;28;20493;-72
2023/02/08 06:04:47;;;;;;;15.50;8.77;;;-1.90;96.00;;;;;;5033449;28;20029;-72
2023/02/08 06:07:13;;;;;;;22.13;9.25;;;-1.90;96.80;;;;;;5025350;28;20034;-72
2023/02/08 06:09:39;;;;;;;17.52;8.80;;;-1.90;98.00;;;;;;5026211;28;20028;-72
2023/02/08 06:12:04;;;;;;;14.63;7.30;;;-2.00;98.10;;;;;;5030513;28;20029;-72
2023/02/08 06:14:30;;;;;;;15.25;7.70;;;-1.90;97.10;;;;;;5028842;28;21098;-73
2023/02/08 06:16:56;;;;;;;17.67;8.55;;;-2.00;95.90;;;;;;5032288;28;20604;-73
2023/02/08 06:19:22;;;;;;;24.50;9.10;;;-1.90;95.90;;;;;;5029898;28;20036;-73
2023/02/08 06:21:48;;;;;;;16.02;7.75;;;-1.80;96.90;;;;;;5023578;28;20037;-72
2023/02/08 06:24:15;;;;;;;12.13;6.80;;;-2.10;97.40;;;;;;5033243;28;20053;-72
2023/02/08 06:26:42;;;;;;;14.30;7.32;;;-2.00;96.30;;;;;;5036880;28;20037;-72
2023/02/08 06:29:07;;;;;;;16.27;7.40;;;-1.60;95.40;;;;;;5025266;28;20056;-72
2023/02/08 06:31:34;;;;;;;22.60;8.93;;;-1.50;96.20;;;;;;5037681;28;20438;-72
2023/02/08 06:33:59;;;;;;;20.50;9.23;;;-1.70;97.40;;;;;;5033293;28;20111;-72
2023/02/08 06:36:25;;;;;;;17.87;8.87;;;-1.90;98.40;;;;;;5030208;28;20092;-72
2023/02/08 06:38:50;;;;;;;13.27;7.50;;;-1.90;99.30;;;;;;5040053;28;20669;-72
2023/02/08 06:41:16;;;;;;;17.05;8.18;;;-1.80;97.80;;;;;;5024985;28;20405;-72
2023/02/08 06:43:42;;;;;;;12.80;6.32;;;-1.80;95.80;;;;;;5025929;28;20039;-72
2023/02/08 06:46:07;;;;;;;13.55;7.32;;;-1.80;95.90;;;;;;5033390;28;20029;-72
2023/02/08 06:48:34;;;;;;;16.65;7.07;;;-1.90;96.00;;;;;;5029002;28;20048;-72
2023/02/08 06:51:00;;;;;;;14.77;8.10;;;-1.70;96.40;;;;;;5029531;28;20025;-72
2023/02/08 06:53:25;;;;;;;18.05;7.97;;;-1.80;97.60;;;;;;5033071;28;20508;-73
2023/02/08 06:55:51;;;;;;;25.50;8.00;;;-1.80;97.30;;;;;;5030219;28;20083;-73
2023/02/08 06:58:17;;;;;;;14.52;8.13;;;-1.80;96.80;;;;;;5027478;28;20061;-73
2023/02/08 07:00:47;;;;;;;15.32;8.82;;;-1.90;97.30;;;;;;5028577;28;20125;-74
2023/02/08 07:03:13;;;;;;;14.07;7.45;;;-2.00;97.90;;;;;;5031385;28;20032;-73
2023/02/08 07:05:40;;;;;;;17.80;9.68;;;-2.00;98.20;;;;;;5022418;28;20383;-73
2023/02/08 07:08:06;;;;;;;15.63;7.53;;;-2.00;98.40;;;;;;5032777;28;20529;-73
2023/02/08 07:10:32;;;;;;;12.37;6.60;;;-1.90;96.50;;;;;;5028614;28;20033;-72
2023/02/08 07:12:58;;;;;;;11.98;6.65;;;-1.80;96.20;;;;;;5035573;28;20029;-73
2023/02/08 07:15:23;;;;;;;13.63;7.28;;;-1.70;95.80;;;;;;5036839;28;20129;-74
2023/02/08 07:17:49;;;;;;;16.52;7.85;;;-1.70;95.80;;;;;;5032314;28;20099;-73
2023/02/08 07:20:15;;;;;;;22.25;7.60;;;-1.70;95.50;;;;;;5020624;28;20124;-73
2023/02/08 07:22:41;;;;;;;16.05;8.18;;;-1.70;95.80;;;;;;5030809;28;20032;-73
2023/02/08 07:25:08;;;;;;;18.17;7.32;;;-1.80;95.80;;;;;;5032569;28;20240;-73
2023/02/08 07:27:34;;;;;;;11.88;6.63;;;-1.90;96.00;;;;;;5033598;28;20671;-73
2023/02/08 07:30:00;;;;;;;14.48;7.97;;;-1.90;95.90;;;;;;5035606;28;20032;-73
2023/02/08 07:32:25;;;;;;;17.73;8.17;;;-1.70;96.10;;;;;;5035127;28;20029;-73
2023/02/08 07:34:52;;;;;;;15.00;7.97;;;-1.70;97.70;;;;;;5028045;28;20052;-73
2023/02/08 07:37:18;;;;;;;14.73;7.53;;;-1.80;98.20;;;;;;5035423;28;20022;-73
2023/02/08 07:39:44;;;;;;;16.77;7.13;;;-1.70;96.50;;;;;;5030177;28;20033;-72
2023/02/08 07:42:10;;;;;;;13.75;7.15;;;-1.40;96.10;;;;;;5027790;28;20037;-73
2023/02/08 07:44:37;;;;;;;14.05;7.30;;;-1.40;95.80;;;;;;5022133;28;20668;-73
2023/02/08 07:47:03;;;;;;;17.02;7.85;;;-1.20;96.10;;;;;;5029529;28;20533;-73
2023/02/08 07:49:29;;;;;;;15.20;7.53;;;-1.30;96.40;;;;;;5025743;28;20041;-73
2023/02/08 07:51:55;;;;;;;18.27;8.30;;;-1.40;96.90;;;;;;5037041;28;20037;-73
2023/02/08 07:54:21;;;;;;;16.70;8.50;;;-1.50;97.20;;;;;;5038922;28;20398;-72
2023/02/08 07:56:46;;;;;;;16.35;8.48;;;-1.40;97.40;;;;;;5026282;28;20391;-73
2023/02/08 07:59:13;;;;;;;14.48;6.68;;;-1.30;97.40;;;;;;5030008;28;20383;-72
2023/02/08 08:01:39;;;;;;;17.55;9.68;;;-1.40;96.70;;;;;;5035278;28;20045;-73
2023/02/08 08:04:05;;;;;;;12.48;7.43;;;-1.50;97.60;;;;;;5027263;28;20030;-73
2023/02/08 08:06:30;;;;;;;17.77;9.15;;;-1.50;97.50;;;;;;5028615;28;20030;-73
2023/02/08 08:08:56;;;;;;;17.20;8.97;;;-1.40;97.30;;;;;;5027752;28;20116;-73
2023/02/08 08:11:22;;;;;;;17.88;10.45;;;-1.60;98.20;;;;;;5034414;28;20021;-73
2023/02/08 08:13:48;;;;;;;18.20;10.38;;;-1.70;99.30;;;;;;5033228;28;20033;-73
2023/02/08 08:16:13;;;;;;;22.55;11.25;;;-1.70;99.50;;;;;;5028259;28;20040;-73
2023/02/08 08:18:39;;;;;;;18.48;9.88;;;-1.60;99.90;;;;;;5033660;28;20025;-73
2023/02/08 08:21:05;;;;;;;18.40;9.63;;;-1.60;99.80;;;;;;5033538;28;20052;-73
2023/02/08 08:23:35;;;;;;;17.98;9.23;;;-1.50;99.60;;;;;;5031580;28;20040;-72
2023/02/08 08:26:08;;;;;;;19.20;9.70;;;-1.50;99.60;;;;;;5031786;28;20029;-73
2023/02/08 08:28:35;;;;;;;14.70;9.15;;;-1.50;99.50;;;;;;5039988;28;20083;-73
2023/02/08 08:31:01;;;;;;;16.25;8.35;;;-1.50;99.40;;;;;;5032302;28;20048;-72
2023/02/08 08:33:27;;;;;;;25.10;12.23;;;-1.50;99.60;;;;;;5030635;28;20502;-73
2023/02/08 08:35:52;;;;;;;21.85;10.85;;;-1.60;99.70;;;;;;5030973;28;20034;-73
2023/02/08 08:38:18;;;;;;;24.83;13.05;;;-1.60;99.90;;;;;;5023376;28;20734;-73
2023/02/08 08:40:43;;;;;;;27.52;14.63;;;-1.50;99.60;;;;;;5030006;28;20048;-72
2023/02/08 08:43:09;;;;;;;24.87;12.70;;;-1.50;99.80;;;;;;5030666;28;20017;-73
2023/02/08 08:45:35;;;;;;;20.25;10.50;;;-1.60;99.90;;;;;;5028975;28;20037;-72
2023/02/08 08:48:02;;;;;;;26.80;13.05;;;-1.50;99.40;;;;;;5033812;28;20037;-72
2023/02/08 08:50:28;;;;;;;17.30;8.23;;;-1.60;99.80;;;;;;5025577;28;20037;-72
2023/02/08 08:52:53;;;;;;;13.03;7.43;;;-1.50;99.90;;;;;;5022545;28;20770;-72
2023/02/08 08:55:19;;;;;;;10.30;6.10;;;-1.40;99.60;;;;;;5024607;28;20035;-72
2023/02/08 08:57:45;;;;;;;14.60;7.60;;;-1.30;97.90;;;;;;5034252;28;20052;-73
2023/02/08 09:00:11;;;;;;;15.50;7.17;;;-1.30;97.60;;;;;;5024895;28;20115;-73
2023/02/08 09:02:37;;;;;;;10.52;6.65;;;-1.20;97.90;;;;;;5030629;28;20036;-72
2023/02/08 09:05:04;;;;;;;11.50;6.10;;;-1.10;97.70;;;;;;5033862;28;20021;-73
2023/02/08 09:07:29;;;;;;;11.45;6.85;;;-1.20;97.10;;;;;;5030970;28;20491;-72
2023/02/08 09:09:55;;;;;;;10.47;5.83;;;-1.00;97.00;;;;;;5034017;28;20078;-73
2023/02/08 09:12:21;;;;;;;11.13;5.82;;;-1.00;96.80;;;;;;5037101;28;20025;-72
2023/02/08 09:14:46;;;;;;;11.90;6.57;;;-1.00;96.60;;;;;;5029244;28;20029;-72
2023/02/08 09:17:12;;;;;;;11.35;6.18;;;-0.90;96.60;;;;;;5024448;28;20044;-73
2023/02/08 09:19:38;;;;;;;10.38;4.90;;;-0.80;96.50;;;;;;5033897;28;20029;-72
2023/02/08 09:22:06;;;;;;;12.45;6.00;;;-0.90;96.20;;;;;;5032361;28;20056;-72
2023/02/08 09:24:32;;;;;;;13.90;6.10;;;-0.80;95.90;;;;;;5041509;28;20025;-72
2023/02/08 09:26:58;;;;;;;18.30;8.30;;;-0.80;96.00;;;;;;5032993;28;20033;-72
2023/02/08 09:29:23;;;;;;;14.23;7.47;;;-0.90;97.00;;;;;;5044495;28;20021;-72
2023/02/08 09:31:49;;;;;;;12.77;6.93;;;-0.70;97.10;;;;;;5030423;28;20113;-72
2023/02/08 09:34:14;;;;;;;14.32;6.80;;;-0.60;96.80;;;;;;5036104;28;20043;-73
2023/02/08 09:36:41;;;;;;;12.27;6.80;;;-0.40;96.60;;;;;;5029454;28;20029;-72
2023/02/08 09:39:21;;;;;;;11.88;6.07;;;-0.30;95.80;;;;;;5027671;28;20382;-73
2023/02/08 09:42:06;;;;;;;14.00;7.60;;;-0.10;95.50;;;;;;5039794;28;20105;-72
2023/02/08 09:44:42;;;;;;;17.15;8.10;;;0.10;95.20;;;;;;5034420;28;20028;-72
2023/02/08 09:47:49;;;;;;;17.50;9.02;;;0.00;95.30;;;;;;5026995;28;20048;-72
2023/02/08 09:50:15;;;;;;;14.63;8.05;;;0.20;95.30;;;;;;5031926;28;20049;-72
2023/02/08 09:52:51;;;;;;;16.02;8.65;;;0.30;95.20;;;;;;5029494;28;20080;-72
2023/02/08 09:55:56;;;;;;;13.15;6.38;;;0.30;95.00;;;;;;5041581;28;20075;-72
2023/02/08 09:58:29;;;;;;;12.85;6.82;;;0.20;95.10;;;;;;5018039;28;20045;-73
2023/02/08 10:00:56;;;;;;;14.88;8.05;;;0.30;95.10;;;;;;5027335;28;20120;-72
2023/02/08 10:03:37;;;;;;;14.25;7.85;;;0.40;94.60;;;;;;5035912;28;20463;-73
2023/02/08 10:06:08;;;;;;;11.93;6.53;;;0.50;94.80;;;;;;5039401;28;20026;-72
2023/02/08 10:08:34;;;;;;;15.95;7.05;;;0.60;94.70;;;;;;5033359;28;20024;-73
2023/02/08 10:11:27;;;;;;;14.63;6.32;;;0.60;94.40;;;;;;5032802;28;20025;-72
2023/02/08 10:14:27;;;;;;;13.20;7.72;;;0.70;94.30;;;;;;5035157;28;20059;-73
2023/02/08 10:17:04;;;;;;;19.75;10.27;;;0.70;94.10;;;;;;5035749;28;20025;-73
2023/02/08 10:20:01;;;;;;;13.25;7.32;;;0.80;93.90;;;;;;5035459;28;20487;-72
2023/02/08 10:22:56;;;;;;;12.93;6.65;;;0.70;93.50;;;;;;5020859;28;20132;-73
2023/02/08 10:25:37;;;;;;;17.13;6.47;;;0.80;93.40;;;;;;5027803;28;20052;-72
2023/02/08 10:28:20;;;;;;;9.85;5.20;;;0.90;93.60;;;;;;5032108;28;20509;-72
2023/02/08 10:30:45;;;;;;;14.00;5.63;;;0.90;92.90;;;;;;5033818;28;20029;-72
2023/02/08 10:33:23;;;;;;;10.40;5.60;;;1.00;93.20;;;;;;5033397;28;20041;-72
2023/02/08 10:35:50;;;;;;;13.65;5.88;;;1.10;93.00;;;;;;5030467;28;20029;-72
2023/02/08 10:38:19;;;;;;;14.68;6.50;;;1.10;92.70;;;;;;5025386;28;20033;-72
2023/02/08 10:41:06;;;;;;;10.73;5.72;;;1.20;92.80;;;;;;5031139;28;20132;-73
2023/02/08 10:43:34;;;;;;;10.88;5.55;;;1.20;91.90;;;;;;5031810;28;20112;-72
2023/02/08 10:46:00;;;;;;;12.52;5.68;;;1.20;91.90;;;;;;5030059;28;20033;-73
2023/02/08 10:48:49;;;;;;;16.30;8.38;;;1.40;92.50;;;;;;5039282;28;20475;-73
2023/02/08 10:51:18;;;;;;;13.60;6.80;;;1.60;92.40;;;;;;5034305;28;20033;-72
2023/02/08 10:53:45;;;;;;;15.50;7.75;;;1.70;92.00;;;;;;5027489;28;20025;-72
2023/02/08 10:56:29;;;;;;;9.70;5.80;;;1.80;91.90;;;;;;5033746;28;20029;-73
2023/02/08 10:58:56;;;;;;;12.80;6.38;;;1.80;91.90;;;;;;5040608;28;20044;-73
2023/02/08 11:01:22;;;;;;;10.00;5.97;;;2.00;91.90;;;;;;5026080;28;20040;-73
2023/02/08 11:04:00;;;;;;;13.15;5.78;;;2.00;91.30;;;;;;5028771;28;21138;-72
2023/02/08 11:06:26;;;;;;;11.23;7.55;;;1.90;91.00;;;;;;5042875;28;20029;-72
2023/02/08 11:08:55;;;;;;;14.50;6.95;;;1.90;91.10;;;;;;5029597;28;20026;-73
2023/02/08 11:11:22;;;;;;;13.18;6.55;;;2.10;91.10;;;;;;5043436;28;20041;-73
2023/02/08 11:13:51;;;;;;;33.53;14.57;;;2.30;91.50;;;;;;5038365;28;20025;-73
2023/02/08 11:16:25;;;;;;;25.30;12.68;;;2.50;91.30;;;;;;5029760;28;20063;-73
2023/02/08 11:18:55;;;;;;;46.67;23.15;;;2.70;91.20;;;;;;5032171;28;20116;-73
2023/02/08 11:21:32;;;;;;;40.22;19.27;;;2.90;90.30;;;;;;5031759;28;20040;-73
2023/02/08 11:24:19;;;;;;;36.55;17.55;;;3.00;90.40;;;;;;5028203;28;20029;-73
2023/02/08 11:26:45;;;;;;;13.55;7.57;;;2.90;90.10;;;;;;5023929;28;20045;-73
2023/02/08 11:29:16;;;;;;;13.55;7.18;;;3.00;90.10;;;;;;5032046;28;20482;-73
2023/02/08 11:31:54;;;;;;;8.93;5.75;;;2.90;90.10;;;;;;5037213;28;20033;-72
2023/02/08 11:34:27;;;;;;;12.48;6.15;;;3.30;90.20;;;;;;5025524;28;20037;-73
2023/02/08 11:36:53;;;;;;;10.55;5.35;;;3.20;89.40;;;;;;5031072;28;20032;-73
2023/02/08 11:39:24;;;;;;;10.73;6.20;;;3.20;89.80;;;;;;5029515;28;20033;-73
2023/02/08 11:41:54;;;;;;;11.90;6.10;;;3.40;90.30;;;;;;5024628;28;20053;-73
2023/02/08 11:44:31;;;;;;;10.65;5.32;;;3.40;89.80;;;;;;5024059;28;20370;-73
2023/02/08 11:47:00;;;;;;;11.00;5.80;;;3.60;89.60;;;;;;5030659;28;20053;-73
2023/02/08 11:49:40;;;;;;;12.60;6.03;;;3.30;88.50;;;;;;5024262;28;20107;-73
2023/02/08 11:52:25;;;;;;;10.35;6.40;;;3.20;88.20;;;;;;5030866;28;20036;-73
2023/02/08 11:54:52;;;;;;;;;;;3.20;88.20;;;;;;5031730;28;20557;-73
2023/02/08 11:57:23;;;;;;;11.13;6.28;;;3.80;90.10;;;;;;5029517;28;20313;-73
2023/02/08 12:00:08;;;;;;;11.07;5.88;;;3.90;88.70;;;;;;5030446;28;20033;-73
2023/02/08 12:02:34;;;;;;;15.25;6.97;;;4.10;88.60;;;;;;5027807;28;20480;-73
2023/02/08 12:05:01;;;;;;;12.13;6.13;;;4.20;87.60;;;;;;5024085;28;20025;-72
2023/02/08 12:07:52;;;;;;;14.07;6.85;;;4.20;86.60;;;;;;5032800;28;20025;-73
2023/02/08 12:10:24;;;;;;;14.75;7.03;;;3.90;87.00;;;;;;5036837;28;20479;-73
2023/02/08 12:13:05;;;;;;;14.13;5.95;;;3.90;87.70;;;;;;5034128;28;20036;-72
2023/02/08 12:15:58;;;;;;;11.73;6.05;;;3.90;87.80;;;;;;5034655;28;20124;-72
2023/02/08 12:18:26;;;;;;;11.38;6.10;;;4.10;87.10;;;;;;5035915;28;20143;-73
2023/02/08 12:21:06;;;;;;;12.60;6.35;;;4.10;87.20;;;;;;5025122;28;20347;-73
2023/02/08 12:23:57;;;;;;;14.52;6.82;;;4.10;87.00;;;;;;5023394;28;20659;-73
2023/02/08 12:26:56;;;;;;;14.30;7.35;;;4.20;86.60;;;;;;5023313;28;20112;-73
2023/02/08 12:29:39;;;;;;;14.23;6.15;;;4.50;86.70;;;;;;5021735;28;20055;-73
2023/02/08 12:32:23;;;;;;;13.35;7.60;;;4.60;87.70;;;;;;5041035;28;20124;-73
2023/02/08 12:35:14;;;;;;;11.48;6.35;;;4.70;86.40;;;;;;5034332;28;20589;-73
2023/02/08 12:41:20;;;;;;;12.43;6.50;;;4.90;86.70;;;;;;5034394;28;20064;-72
2023/02/08 12:44:09;;;;;;;10.73;6.45;;;4.90;84.80;;;;;;5028740;28;20117;-72
2023/02/08 12:47:04;;;;;;;10.93;6.28;;;4.80;86.00;;;;;;5032418;28;20036;-72
2023/02/08 12:50:09;;;;;;;9.88;6.22;;;4.90;85.50;;;;;;5037757;28;20025;-75
2023/02/08 12:52:41;;;;;;;14.30;6.95;;;5.00;84.20;;;;;;4989472;28;20030;-74
2023/02/08 12:55:35;;;;;;;15.98;6.78;;;4.80;84.00;;;;;;5020186;28;20045;-73
2023/02/08 12:58:30;;;;;;;21.85;6.40;;;4.90;84.30;;;;;;5031495;28;20087;-73
2023/02/08 13:01:04;;;;;;;11.27;5.93;;;4.70;84.30;;;;;;5028713;28;20487;-73
2023/02/08 13:04:01;;;;;;;12.38;5.82;;;4.60;84.30;;;;;;5029125;28;20719;-73